createdAt,value
2023-01-24T04:59:30.147Z,8.80
2023-01-24T05:02:33.575Z,9.07
2023-01-24T05:05:36.225Z,8.70
2023-01-24T05:08:38.753Z,8.93
2023-01-24T05:11:40.923Z,8.90
2023-01-24T05:14:43.559Z,8.55
2023-01-24T05:17:45.762Z,8.82
2023-01-24T05:20:48.750Z,9.13
2023-01-24T05:23:53.096Z,9.30
2023-01-24T05:26:56.005Z,9.20
2023-01-24T05:29:59.506Z,9.25
2023-01-24T05:33:02.282Z,9.45
2023-01-24T05:36:07.583Z,8.95
2023-01-24T05:39:10.642Z,9.15
2023-01-24T05:42:12.816Z,9.48
2023-01-24T05:45:15.616Z,8.77
2023-01-24T05:48:18.031Z,8.43
2023-01-24T05:51:21.679Z,9.40
2023-01-24T05:54:24.286Z,8.98
2023-01-24T05:57:27.485Z,9.07
2023-01-24T06:00:35.402Z,8.23
2023-01-24T06:03:41.962Z,8.50
2023-01-24T06:06:44.078Z,8.93
2023-01-24T06:09:46.455Z,8.93
2023-01-24T06:12:48.882Z,9.00
2023-01-24T06:15:51.373Z,8.90
2023-01-24T06:18:55.287Z,8.55
2023-01-24T06:22:10.931Z,9.20
2023-01-24T06:25:25.279Z,8.20
2023-01-24T06:28:27.871Z,8.55
2023-01-24T06:31:39.214Z,8.80
2023-01-24T06:35:20.014Z,9.15
2023-01-24T06:38:24.907Z,9.48
2023-01-24T06:41:27.648Z,9.55
2023-01-24T06:44:30.049Z,8.88
2023-01-24T06:47:32.409Z,9.68
2023-01-24T06:50:34.613Z,10.48
2023-01-24T06:53:37.003Z,9.98
2023-01-24T06:56:39.085Z,9.68
2023-01-24T06:59:41.527Z,10.32
2023-01-24T07:02:43.720Z,9.93
2023-01-24T07:05:46.114Z,10.40
2023-01-24T07:08:48.182Z,10.45
2023-01-24T07:11:53.677Z,11.18
2023-01-24T07:14:55.863Z,12.50
2023-01-24T07:18:05.698Z,10.55
2023-01-24T07:21:09.170Z,9.82
2023-01-24T07:24:18.177Z,9.80
2023-01-24T07:27:20.674Z,10.95
2023-01-24T07:30:23.081Z,10.25
2023-01-24T07:33:25.183Z,10.30
2023-01-24T07:36:29.436Z,10.48
2023-01-24T07:39:32.254Z,10.45
2023-01-24T07:42:35.396Z,10.48
2023-01-24T07:45:39.211Z,9.70
2023-01-24T07:48:41.812Z,10.93
2023-01-24T07:51:45.946Z,10.57
2023-01-24T07:54:48.307Z,10.40
2023-01-24T07:57:50.988Z,10.00
2023-01-24T08:00:53.459Z,11.25
2023-01-24T08:03:57.397Z,10.77
2023-01-24T08:07:17.702Z,10.70
2023-01-24T08:10:22.639Z,10.55
2023-01-24T08:13:24.948Z,11.00
2023-01-24T08:16:27.464Z,10.52
2023-01-24T08:19:53.727Z,10.98
2023-01-24T08:22:58.126Z,10.88
2023-01-24T08:26:02.114Z,12.57
2023-01-24T08:29:04.509Z,12.98
2023-01-24T08:32:06.727Z,12.93
2023-01-24T08:35:09.369Z,12.52
2023-01-24T08:38:12.836Z,13.52
2023-01-24T08:41:15.450Z,13.23
2023-01-24T08:44:19.111Z,13.48
2023-01-24T08:47:21.578Z,12.98
2023-01-24T08:50:24.018Z,13.35
2023-01-24T08:53:26.662Z,13.52
2023-01-24T08:56:28.795Z,13.10
2023-01-24T08:59:31.331Z,13.02
2023-01-24T09:02:35.819Z,13.60
2023-01-24T09:05:39.512Z,12.40
2023-01-24T09:08:42.718Z,12.65
2023-01-24T09:11:45.194Z,12.68
2023-01-24T09:14:47.303Z,12.63
2023-01-24T09:17:49.735Z,13.13
2023-01-24T09:20:52.015Z,12.57
2023-01-24T09:23:55.756Z,12.23
2023-01-24T09:26:57.893Z,13.40
2023-01-24T09:30:01.208Z,12.85
2023-01-24T09:33:06.963Z,12.93
2023-01-24T09:36:09.882Z,13.10
2023-01-24T09:39:11.981Z,13.15
2023-01-24T09:42:28.750Z,13.05
2023-01-24T09:45:36.942Z,12.68
2023-01-24T09:48:40.999Z,12.95
2023-01-24T09:51:54.994Z,12.13
2023-01-24T09:55:04.290Z,13.40
2023-01-24T09:58:57.010Z,13.90
2023-01-24T10:01:59.881Z,10.15
2023-01-24T10:05:02.333Z,7.62
2023-01-24T10:08:16.614Z,8.73
2023-01-24T10:11:18.910Z,7.68
2023-01-24T10:14:32.954Z,8.77
2023-01-24T10:17:44.978Z,9.80
2023-01-24T10:21:00.933Z,8.75
2023-01-24T10:24:14.336Z,8.88
2023-01-24T10:27:26.358Z,8.50
2023-01-24T10:30:44.262Z,9.20
2023-01-24T10:33:49.599Z,10.73
2023-01-24T10:37:00.398Z,9.83
2023-01-24T10:40:02.617Z,10.25
2023-01-24T10:43:08.682Z,9.23
2023-01-24T10:46:35.491Z,10.70
2023-01-24T10:49:41.547Z,10.43
2023-01-24T10:52:47.555Z,10.40
2023-01-24T10:55:50.347Z,10.43
2023-01-24T10:58:56.667Z,9.93
2023-01-24T11:02:00.860Z,10.60
2023-01-24T11:05:07.190Z,10.02
2023-01-24T11:08:21.828Z,9.95
2023-01-24T11:11:29.241Z,10.10
2023-01-24T11:14:36.307Z,9.95
2023-01-24T11:17:39.869Z,9.88
2023-01-24T11:20:45.116Z,10.05
2023-01-24T11:24:20.740Z,9.57
2023-01-24T11:30:27.109Z,9.55
2023-01-24T11:34:05.400Z,8.77
2023-01-24T11:37:13.353Z,8.10
2023-01-24T11:40:52.619Z,8.57
2023-01-24T11:44:13.170Z,8.65
2023-01-24T11:47:21.009Z,8.70
2023-01-24T11:50:38.336Z,9.65
2023-01-24T11:53:49.899Z,8.80
2023-01-24T11:57:03.019Z,9.10
2023-01-24T12:00:32.752Z,9.65
2023-01-24T12:04:03.513Z,10.48
2023-01-24T12:07:20.779Z,9.50
2023-01-24T12:11:17.157Z,10.25
2023-01-24T12:14:34.570Z,8.82
2023-01-24T12:17:48.540Z,8.40
2023-01-24T12:21:07.014Z,9.13
2023-01-24T12:24:23.662Z,8.93
2023-01-24T12:27:27.626Z,9.85
2023-01-24T12:30:43.338Z,9.95
2023-01-24T12:34:07.712Z,9.57
2023-01-24T12:37:20.422Z,9.52
2023-01-24T12:40:36.384Z,8.80
2023-01-24T12:47:08.493Z,8.88
2023-01-24T12:50:18.484Z,9.18
2023-01-24T12:53:26.486Z,10.23
2023-01-24T12:57:06.292Z,9.52
2023-01-24T13:00:23.351Z,9.73
2023-01-24T13:03:38.024Z,9.23
2023-01-24T13:06:55.486Z,9.48
2023-01-24T13:10:31.269Z,9.45
2023-01-24T13:13:40.369Z,9.05
2023-01-24T13:17:10.390Z,9.10
2023-01-24T13:20:32.740Z,10.07
2023-01-24T13:23:41.414Z,8.88
2023-01-24T13:27:19.149Z,9.82
2023-01-24T13:30:40.966Z,10.32
2023-01-24T13:33:52.625Z,12.20
2023-01-24T13:36:55.621Z,11.80
2023-01-24T13:40:07.227Z,11.45
2023-01-24T13:43:48.329Z,12.23
2023-01-24T13:47:02.279Z,10.75
2023-01-24T13:50:13.560Z,12.43
2023-01-24T13:54:07.961Z,13.18
2023-01-24T13:57:20.228Z,15.18
2023-01-24T14:00:23.185Z,14.82
2023-01-24T14:03:30.060Z,16.12
2023-01-24T14:06:43.498Z,16.02
2023-01-24T14:09:47.524Z,15.63
2023-01-24T14:12:55.498Z,16.00
2023-01-24T14:15:57.898Z,16.70
2023-01-24T14:19:04.898Z,15.75
2023-01-24T14:22:20.203Z,16.95
2023-01-24T14:25:42.720Z,16.25
2023-01-24T14:28:51.148Z,15.65
2023-01-24T14:31:56.503Z,17.73
2023-01-24T14:35:07.607Z,17.42
2023-01-24T14:38:16.999Z,17.45
2023-01-24T14:41:23.331Z,17.80
2023-01-24T14:44:39.131Z,18.40
2023-01-24T14:47:48.635Z,19.30
2023-01-24T14:50:59.944Z,18.87
2023-01-24T14:54:02.383Z,18.85
2023-01-24T14:57:26.081Z,18.90
2023-01-24T15:00:28.481Z,19.83
2023-01-24T15:03:36.032Z,19.55
2023-01-24T15:06:38.424Z,21.55
2023-01-24T15:09:44.429Z,21.17
2023-01-24T15:15:49.191Z,20.73
2023-01-24T15:18:55.027Z,21.12
2023-01-24T15:21:58.163Z,21.20
2023-01-24T15:25:04.574Z,20.60
2023-01-24T15:28:19.218Z,19.90
2023-01-24T15:31:27.529Z,18.65
2023-01-24T15:34:31.633Z,20.33
2023-01-24T15:37:34.059Z,19.80
2023-01-24T15:40:45.343Z,20.50
2023-01-24T15:44:05.411Z,20.62
2023-01-24T15:47:39.390Z,19.83
2023-01-24T15:51:09.321Z,19.23
2023-01-24T15:54:14.386Z,20.40
2023-01-24T15:57:20.657Z,19.80
2023-01-24T16:00:25.596Z,21.12
2023-01-24T16:03:27.970Z,20.27
2023-01-24T16:06:30.117Z,22.08
2023-01-24T16:09:32.515Z,20.55
2023-01-24T16:12:35.563Z,20.88
2023-01-24T16:15:39.160Z,20.83
2023-01-24T16:18:42.284Z,20.00
2023-01-24T16:21:45.706Z,20.92
2023-01-24T16:24:47.780Z,20.62
2023-01-24T16:27:52.177Z,20.52
2023-01-24T16:31:00.487Z,21.12
2023-01-24T16:34:02.967Z,21.58
2023-01-24T16:37:05.045Z,21.10
2023-01-24T16:40:11.018Z,20.23
2023-01-24T16:43:22.197Z,21.73
2023-01-24T16:46:25.057Z,22.00
2023-01-24T16:49:28.893Z,24.23
2023-01-24T16:52:32.205Z,23.95
2023-01-24T16:55:35.174Z,24.52
2023-01-24T16:58:37.896Z,24.25
2023-01-24T17:01:41.264Z,22.42
2023-01-24T17:04:43.991Z,25.23
